Time;durP1;ratioP1;P1;durP2;ratioP2;P2;SDS_P1;SDS_P2;PMS_P1;PMS_P2;Temp;Humidity;BMP_temperature;BMP_pressure;BME280_temperature;BME280_humidity;BME280_pressure;Samples;Min_cycle;Max_cycle;Signal;HPM_P1;HPM_P2
2022/11/15 00:00:50;;;;;;;78.53;34.08;;;7.40;99.90;;;;;;5073727;28;20028;-73
2022/11/15 00:03:21;;;;;;;90.72;36.95;;;7.40;99.90;;;;;;5074694;28;20025;-73
2022/11/15 00:05:46;;;;;;;80.82;34.78;;;7.40;99.90;;;;;;5074030;28;20028;-73
2022/11/15 00:08:12;;;;;;;85.10;34.17;;;7.40;99.90;;;;;;5073920;28;20016;-72
2022/11/15 00:10:38;;;;;;;86.32;33.72;;;7.40;99.90;;;;;;5073410;28;20494;-75
2022/11/15 00:13:11;;;;;;;97.70;35.42;;;7.40;99.90;;;;;;5073835;28;20111;-73
2022/11/15 00:15:39;;;;;;;89.00;36.13;;;7.40;99.90;;;;;;5072757;28;20051;-74
2022/11/15 00:18:06;;;;;;;86.80;36.08;;;7.40;99.90;;;;;;5073810;28;20024;-74
2022/11/15 00:20:33;;;;;;;89.00;36.67;;;7.50;99.90;;;;;;5073462;28;20032;-74
2022/11/15 00:22:59;;;;;;;92.05;36.58;;;7.40;99.90;;;;;;5073083;28;20028;-73
2022/11/15 00:25:25;;;;;;;91.97;34.83;;;7.40;99.90;;;;;;5073443;28;20028;-73
2022/11/15 00:27:51;;;;;;;91.07;35.92;;;7.40;99.90;;;;;;5073201;28;20109;-74
2022/11/15 00:30:17;;;;;;;89.63;36.00;;;7.40;99.90;;;;;;5074023;28;20025;-74
2022/11/15 00:32:43;;;;;;;85.55;36.13;;;7.50;99.90;;;;;;5074007;28;20119;-74
2022/11/15 00:35:08;;;;;;;93.28;36.60;;;7.40;99.90;;;;;;5073003;28;20048;-74
2022/11/15 00:37:34;;;;;;;93.03;37.50;;;7.50;99.90;;;;;;5073888;28;20016;-72
2022/11/15 00:39:59;;;;;;;86.40;34.58;;;7.50;99.90;;;;;;5073697;28;20043;-74
2022/11/15 00:42:25;;;;;;;94.30;36.47;;;7.50;99.90;;;;;;5073623;28;20032;-74
2022/11/15 00:44:50;;;;;;;94.45;36.97;;;7.50;99.90;;;;;;5073139;28;20092;-76
2022/11/15 00:47:16;;;;;;;97.82;37.97;;;7.50;99.90;;;;;;5069181;28;20033;-74
2022/11/15 00:49:41;;;;;;;99.72;37.10;;;7.50;99.90;;;;;;5063015;28;20027;-76
2022/11/15 00:52:07;;;;;;;78.45;35.25;;;7.50;99.90;;;;;;5073272;28;20441;-73
2022/11/15 00:54:33;;;;;;;110.60;40.03;;;7.60;99.90;;;;;;5073594;28;20056;-74
2022/11/15 00:56:58;;;;;;;88.07;36.20;;;7.60;99.90;;;;;;5072809;28;20078;-74
2022/11/15 00:59:24;;;;;;;89.82;36.03;;;7.60;99.90;;;;;;5073320;28;20023;-74
2022/11/15 01:01:49;;;;;;;87.82;35.83;;;7.60;99.90;;;;;;5073294;28;20109;-74
2022/11/15 01:04:15;;;;;;;97.88;37.85;;;7.60;99.90;;;;;;5072637;28;20032;-74
2022/11/15 01:06:40;;;;;;;86.47;37.83;;;7.70;99.90;;;;;;5072561;28;20439;-74
2022/11/15 01:09:06;;;;;;;100.85;37.47;;;7.70;99.90;;;;;;5072869;28;20503;-74
2022/11/15 01:11:31;;;;;;;93.72;35.67;;;7.60;99.90;;;;;;5072054;28;20491;-74
2022/11/15 01:13:57;;;;;;;113.18;38.10;;;7.60;99.90;;;;;;5073061;28;20069;-74
2022/11/15 01:16:22;;;;;;;89.00;38.22;;;7.70;99.90;;;;;;5073078;28;20062;-74
2022/11/15 01:18:48;;;;;;;98.75;38.35;;;7.70;99.90;;;;;;5071827;28;20039;-74
2022/11/15 01:21:16;;;;;;;95.32;36.97;;;7.70;99.90;;;;;;5072791;28;20028;-73
2022/11/15 01:23:42;;;;;;;93.20;35.38;;;7.70;99.90;;;;;;5072855;28;20025;-73
2022/11/15 01:26:12;;;;;;;97.13;36.83;;;7.70;99.90;;;;;;5071536;28;20028;-74
2022/11/15 01:28:40;;;;;;;87.85;35.80;;;7.70;99.90;;;;;;5072424;28;20052;-74
2022/11/15 01:31:11;;;;;;;83.63;34.92;;;7.80;99.90;;;;;;5072575;28;20033;-74
2022/11/15 01:33:36;;;;;;;;;;;7.80;99.90;;;;;;5072996;28;20040;-74
2022/11/15 01:36:07;;;;;;;103.38;38.30;;;7.80;99.90;;;;;;5072483;28;20441;-74
2022/11/15 01:38:34;;;;;;;91.05;35.70;;;7.90;99.90;;;;;;5058718;28;20036;-74
2022/11/15 01:40:59;;;;;;;92.70;36.65;;;7.90;99.90;;;;;;5072871;28;20032;-73
2022/11/15 01:43:36;;;;;;;95.60;36.47;;;7.90;99.90;;;;;;5061099;28;20019;-74
2022/11/15 01:46:33;;;;;;;81.90;37.05;;;8.00;99.90;;;;;;5052201;28;20035;-73
2022/11/15 01:49:05;;;;;;;76.65;34.00;;;8.00;99.90;;;;;;5056985;28;20032;-73
2022/11/15 01:51:33;;;;;;;67.53;34.05;;;8.00;99.90;;;;;;5068576;28;20017;-74
2022/11/15 01:54:08;;;;;;;85.85;36.17;;;8.00;99.90;;;;;;5062492;28;20064;-74
2022/11/15 01:56:42;;;;;;;71.15;35.08;;;8.00;99.90;;;;;;5071649;28;20025;-74
2022/11/15 01:59:09;;;;;;;78.78;36.83;;;8.00;99.90;;;;;;5072460;28;20124;-74
2022/11/15 02:01:35;;;;;;;80.57;35.78;;;8.10;99.90;;;;;;5057070;28;22081;-74
2022/11/15 02:04:15;;;;;;;73.60;35.63;;;8.10;99.90;;;;;;5072313;28;20100;-74
2022/11/15 02:06:42;;;;;;;76.80;35.23;;;8.10;99.90;;;;;;5071041;28;20064;-74
2022/11/15 02:09:07;;;;;;;74.50;35.42;;;8.20;99.90;;;;;;5072356;28;20044;-74
2022/11/15 02:11:33;;;;;;;77.82;36.92;;;8.10;99.90;;;;;;5072158;28;20034;-73
2022/11/15 02:14:00;;;;;;;74.30;35.08;;;8.20;99.90;;;;;;5071641;28;20016;-74
2022/11/15 02:16:39;;;;;;;70.97;37.78;;;8.20;99.90;;;;;;5072095;28;20033;-74
2022/11/15 02:19:20;;;;;;;66.28;34.30;;;8.20;99.90;;;;;;5058928;28;20079;-74
2022/11/15 02:22:04;;;;;;;;;;;8.30;99.90;;;;;;5075425;28;20082;-73
2022/11/15 02:25:18;;;;;;;68.72;33.50;;;8.30;99.90;;;;;;5075925;28;19908;-74
2022/11/15 02:27:52;;;;;;;75.72;34.50;;;8.30;99.90;;;;;;5012885;28;20022;-74
2022/11/15 02:30:45;;;;;;;81.32;36.55;;;8.30;99.90;;;;;;5063799;28;20036;-74
2022/11/15 02:33:35;;;;;;;80.40;37.72;;;8.40;99.90;;;;;;5076476;28;20507;-74
2022/11/15 02:36:16;;;;;;;75.80;34.65;;;8.40;99.90;;;;;;5075449;28;20024;-74
2022/11/15 02:38:45;;;;;;;74.80;33.53;;;8.50;99.90;;;;;;5076314;28;20108;-74
2022/11/15 02:41:21;;;;;;;75.95;35.80;;;8.50;99.90;;;;;;5061891;28;20028;-74
2022/11/15 02:43:56;;;;;;;65.55;32.63;;;8.50;99.90;;;;;;5074874;28;20024;-75
2022/11/15 02:49:17;;;;;;;72.93;34.03;;;8.60;99.90;;;;;;5075158;28;20066;-75
2022/11/15 02:51:44;;;;;;;65.35;32.63;;;8.60;99.90;;;;;;5068038;28;20025;-73
2022/11/15 02:54:19;;;;;;;70.95;33.00;;;8.60;99.90;;;;;;5069363;28;20025;-73
2022/11/15 02:56:46;;;;;;;66.10;32.78;;;8.60;99.90;;;;;;5074550;28;20032;-74
2022/11/15 02:59:17;;;;;;;61.08;32.35;;;8.70;99.90;;;;;;5075374;28;20063;-73
2022/11/15 03:02:06;;;;;;;60.17;31.75;;;8.90;99.90;;;;;;5061562;28;20043;-72
2022/11/15 03:04:44;;;;;;;50.53;30.35;;;9.60;99.90;;;;;;5074477;28;20362;-74
2022/11/15 03:07:32;;;;;;;73.13;33.30;;;8.80;99.90;;;;;;5075605;28;20040;-74
2022/11/15 03:10:16;;;;;;;59.97;31.85;;;8.90;99.90;;;;;;5074318;28;20016;-74
2022/11/15 03:12:48;;;;;;;61.30;31.73;;;9.00;99.90;;;;;;5075112;28;20036;-74
2022/11/15 03:15:20;;;;;;;67.95;31.00;;;9.00;99.90;;;;;;5074706;28;20415;-74
2022/11/15 03:18:00;;;;;;;64.55;33.05;;;9.00;99.90;;;;;;5074615;28;20021;-73
2022/11/15 03:20:27;;;;;;;65.72;31.77;;;9.00;99.90;;;;;;5061193;28;20017;-74
2022/11/15 03:23:01;;;;;;;63.55;32.13;;;9.00;99.90;;;;;;5075011;28;20032;-74
2022/11/15 03:25:30;;;;;;;59.80;32.83;;;9.10;99.90;;;;;;5074376;28;20028;-73
2022/11/15 03:27:58;;;;;;;56.92;31.05;;;9.10;99.90;;;;;;5075117;28;20025;-73
2022/11/15 03:30:24;;;;;;;51.50;31.17;;;9.10;99.90;;;;;;5074023;28;20017;-74
2022/11/15 03:32:59;;;;;;;65.60;33.15;;;9.20;99.90;;;;;;5074652;28;20484;-73
2022/11/15 03:35:29;;;;;;;63.22;31.63;;;9.20;99.90;;;;;;5074889;28;20048;-74
2022/11/15 03:38:19;;;;;;;51.88;31.35;;;9.20;99.90;;;;;;5074198;28;20032;-73
2022/11/15 03:41:03;;;;;;;55.85;31.00;;;9.30;99.90;;;;;;5054053;28;20064;-73
2022/11/15 03:43:53;;;;;;;49.92;28.88;;;9.30;99.90;;;;;;5074286;28;20036;-75
2022/11/15 03:46:38;;;;;;;54.03;29.60;;;9.30;99.90;;;;;;5074313;28;20036;-75
2022/11/15 03:49:12;;;;;;;47.03;30.45;;;9.30;99.90;;;;;;5074907;28;20040;-75
2022/11/15 03:51:37;;;;;;;49.15;30.80;;;9.40;99.90;;;;;;5067328;28;20021;-74
2022/11/15 03:54:06;;;;;;;49.58;29.33;;;9.40;99.90;;;;;;5066903;28;20031;-73
2022/11/15 03:56:32;;;;;;;43.17;27.83;;;9.40;99.90;;;;;;5074172;28;20107;-74
2022/11/15 03:58:57;;;;;;;40.97;28.70;;;9.40;99.90;;;;;;5073987;28;20060;-74
2022/11/15 04:01:23;;;;;;;47.45;28.83;;;9.40;99.90;;;;;;5074265;28;20116;-73
2022/11/15 04:03:48;;;;;;;56.70;30.00;;;9.40;99.90;;;;;;5074288;28;20078;-74
2022/11/15 04:06:14;;;;;;;45.35;29.23;;;9.50;99.90;;;;;;5073395;28;20020;-74
2022/11/15 04:08:41;;;;;;;51.20;28.90;;;9.50;99.90;;;;;;5073973;28;20111;-74
2022/11/15 04:11:07;;;;;;;45.95;28.75;;;9.50;99.90;;;;;;5074163;28;20028;-74
2022/11/15 04:13:32;;;;;;;48.33;29.17;;;9.50;99.90;;;;;;5073415;28;20032;-74
2022/11/15 04:15:58;;;;;;;42.20;26.33;;;9.60;99.90;;;;;;5074397;28;20036;-73
2022/11/15 04:18:24;;;;;;;44.47;28.48;;;9.60;99.90;;;;;;5073686;28;20055;-74
2022/11/15 04:26:20;;;;;;;53.63;29.75;;;9.60;99.90;;;;;;5073698;28;20055;-75
2022/11/15 04:31:32;;;;;;;39.90;24.35;;;9.60;99.90;;;;;;5073437;28;20032;-74
2022/11/15 04:33:58;;;;;;;50.47;28.45;;;9.60;99.90;;;;;;5073382;28;20102;-75
2022/11/15 04:39:08;;;;;;;44.72;27.58;;;9.70;99.90;;;;;;5060837;28;20036;-74
2022/11/15 04:41:33;;;;;;;50.35;27.38;;;9.70;99.90;;;;;;5073678;28;20037;-75
2022/11/15 04:43:59;;;;;;;50.53;26.85;;;9.70;99.90;;;;;;5072899;28;20095;-75
2022/11/15 04:46:25;;;;;;;48.17;26.77;;;9.70;99.90;;;;;;5073120;28;20539;-73
2022/11/15 04:48:52;;;;;;;41.92;27.58;;;9.70;99.90;;;;;;5072977;28;20029;-74
2022/11/15 04:51:18;;;;;;;45.33;26.23;;;9.80;99.90;;;;;;5069130;28;20031;-73
2022/11/15 04:53:43;;;;;;;47.50;26.58;;;9.80;99.90;;;;;;5063689;28;20024;-75
2022/11/15 04:56:09;;;;;;;41.42;25.20;;;9.70;99.90;;;;;;5072459;28;20032;-74
2022/11/15 04:58:35;;;;;;;35.47;25.75;;;9.70;99.90;;;;;;5072809;28;20028;-73
2022/11/15 05:01:14;;;;;;;37.97;25.88;;;9.60;99.90;;;;;;5073643;28;20047;-74
2022/11/15 05:06:25;;;;;;;38.22;25.23;;;9.60;99.90;;;;;;5073530;28;20032;-75
2022/11/15 05:08:50;;;;;;;35.85;24.13;;;9.60;99.90;;;;;;5073760;28;20020;-73
2022/11/15 05:11:16;;;;;;;43.55;26.88;;;9.50;99.90;;;;;;5072109;28;20365;-74
2022/11/15 05:13:41;;;;;;;46.40;26.02;;;9.50;99.90;;;;;;5072507;28;20035;-74
2022/11/15 05:16:07;;;;;;;37.72;25.42;;;9.50;99.90;;;;;;5072768;28;20028;-73
2022/11/15 05:18:32;;;;;;;39.55;25.92;;;9.50;99.90;;;;;;5071681;28;20025;-74
2022/11/15 05:21:06;;;;;;;42.10;24.55;;;9.50;99.90;;;;;;5072808;28;20166;-73
2022/11/15 05:23:31;;;;;;;37.85;24.42;;;9.60;99.90;;;;;;5071652;28;20420;-74
2022/11/15 05:26:01;;;;;;;34.25;24.63;;;9.60;99.90;;;;;;5072886;28;20017;-74
2022/11/15 05:28:27;;;;;;;40.22;24.30;;;9.60;99.90;;;;;;5072124;28;20051;-75
2022/11/15 05:30:53;;;;;;;37.78;24.83;;;9.60;99.90;;;;;;5071794;28;20468;-73
2022/11/15 05:33:19;;;;;;;38.60;23.85;;;9.70;99.90;;;;;;5072496;28;20045;-74
2022/11/15 05:35:54;;;;;;;38.80;24.58;;;9.70;99.90;;;;;;5073199;28;20035;-74
2022/11/15 05:38:20;;;;;;;37.30;25.27;;;9.60;99.90;;;;;;5072368;28;20439;-74
2022/11/15 05:40:46;;;;;;;39.83;24.63;;;9.60;99.90;;;;;;5072290;28;20108;-74
2022/11/15 05:43:14;;;;;;;40.63;24.70;;;9.60;99.90;;;;;;5072901;28;20020;-74
2022/11/15 05:45:39;;;;;;;41.17;23.60;;;9.60;99.90;;;;;;5071505;28;20060;-74
2022/11/15 05:48:07;;;;;;;35.88;23.98;;;9.60;99.90;;;;;;5072267;28;20056;-74
2022/11/15 05:50:34;;;;;;;41.45;24.30;;;9.70;99.90;;;;;;5071673;28;20506;-74
2022/11/15 05:53:01;;;;;;;38.25;22.45;;;9.70;99.90;;;;;;5057301;28;20116;-74
2022/11/15 05:55:26;;;;;;;33.30;23.00;;;9.70;99.90;;;;;;5071400;28;20053;-74
2022/11/15 05:57:55;;;;;;;39.28;23.25;;;9.60;99.90;;;;;;5072498;28;20075;-74
2022/11/15 06:00:21;;;;;;;45.92;24.02;;;9.60;99.90;;;;;;5071892;28;20017;-74
2022/11/15 06:02:46;;;;;;;44.10;24.95;;;9.70;99.90;;;;;;5072260;28;20036;-74
2022/11/15 06:05:12;;;;;;;40.08;23.67;;;9.70;99.90;;;;;;5072890;28;20390;-73
2022/11/15 06:07:37;;;;;;;36.33;22.90;;;9.60;99.90;;;;;;5071271;28;20380;-74
2022/11/15 06:10:04;;;;;;;34.30;22.88;;;9.70;99.90;;;;;;5071981;28;20381;-74
2022/11/15 06:12:29;;;;;;;39.85;22.55;;;9.70;99.90;;;;;;5070672;28;20119;-74
2022/11/15 06:14:58;;;;;;;35.55;23.08;;;9.70;99.90;;;;;;5071799;28;20492;-73
2022/11/15 06:17:23;;;;;;;35.60;21.83;;;9.70;99.90;;;;;;5072165;28;20017;-74
2022/11/15 06:19:52;;;;;;;44.60;24.13;;;9.70;99.90;;;;;;5070994;28;20028;-76
2022/11/15 06:22:17;;;;;;;30.92;22.80;;;9.80;99.90;;;;;;5071565;28;20473;-75
2022/11/15 06:24:43;;;;;;;42.53;23.17;;;9.80;99.90;;;;;;5071577;28;20083;-74
2022/11/15 06:27:10;;;;;;;34.83;21.52;;;9.70;99.90;;;;;;5070984;28;20028;-75
2022/11/15 06:29:35;;;;;;;42.85;22.42;;;9.70;99.90;;;;;;5071510;28;20021;-74
2022/11/15 06:32:01;;;;;;;29.70;19.73;;;9.70;99.90;;;;;;5071582;28;20051;-75
2022/11/15 06:34:27;;;;;;;32.58;20.83;;;9.60;99.90;;;;;;5070735;28;20043;-75
2022/11/15 06:36:52;;;;;;;34.72;21.65;;;9.70;99.90;;;;;;5071956;28;20477;-75
2022/11/15 06:39:18;;;;;;;43.95;22.58;;;10.20;99.90;;;;;;5071740;28;20017;-75
2022/11/15 06:41:46;;;;;;;35.60;21.48;;;9.60;99.90;;;;;;5070856;28;20075;-75
2022/11/15 06:44:16;;;;;;;37.83;21.67;;;9.60;99.90;;;;;;5057912;28;20027;-75
2022/11/15 06:46:41;;;;;;;41.03;21.92;;;9.60;99.90;;;;;;5071334;28;20036;-74
2022/11/15 06:49:10;;;;;;;30.90;20.38;;;9.60;99.90;;;;;;5070963;28;20038;-75
2022/11/15 06:51:35;;;;;;;27.30;19.17;;;9.70;99.90;;;;;;5069737;28;20039;-75
2022/11/15 06:54:01;;;;;;;35.88;21.17;;;9.70;99.90;;;;;;5057854;28;20025;-74
2022/11/15 06:56:26;;;;;;;31.35;18.77;;;9.60;99.90;;;;;;5056359;28;20037;-75
2022/11/15 06:58:52;;;;;;;26.42;18.30;;;9.60;99.90;;;;;;5052626;28;20043;-74
2022/11/15 07:01:18;;;;;;;31.98;18.92;;;9.50;99.90;;;;;;5053669;28;20511;-75
2022/11/15 07:03:43;;;;;;;33.75;20.83;;;9.50;99.90;;;;;;5058433;28;20056;-75
2022/11/15 07:06:10;;;;;;;30.08;20.73;;;9.50;99.90;;;;;;5057030;28;20062;-75
2022/11/15 07:08:36;;;;;;;33.35;19.70;;;9.40;99.90;;;;;;5057241;28;20047;-75
2022/11/15 07:11:04;;;;;;;33.65;19.38;;;9.50;99.90;;;;;;5063050;28;20021;-74
2022/11/15 07:13:32;;;;;;;31.55;18.27;;;9.50;99.90;;;;;;5061137;28;20024;-75
2022/11/15 07:16:01;;;;;;;30.48;18.38;;;9.60;99.90;;;;;;5060370;28;20021;-75
2022/11/15 07:18:27;;;;;;;31.30;19.77;;;9.50;99.90;;;;;;5059232;28;20029;-74
2022/11/15 07:20:52;;;;;;;29.05;19.17;;;9.60;99.90;;;;;;5056534;28;20021;-74
2022/11/15 07:23:18;;;;;;;30.92;18.40;;;9.60;99.90;;;;;;5063246;28;20024;-74
2022/11/15 07:25:47;;;;;;;32.55;18.30;;;9.50;99.90;;;;;;5062824;28;20115;-76
2022/11/15 07:28:12;;;;;;;30.35;18.33;;;9.50;99.90;;;;;;5062480;28;20029;-74
2022/11/15 07:30:41;;;;;;;30.85;18.27;;;9.40;99.90;;;;;;5060435;28;20115;-74
2022/11/15 07:33:06;;;;;;;36.40;19.55;;;9.40;99.90;;;;;;5063541;28;20078;-74
2022/11/15 07:35:32;;;;;;;30.10;18.88;;;9.40;99.90;;;;;;5073360;28;20388;-74
2022/11/15 07:38:00;;;;;;;32.22;18.60;;;9.40;99.90;;;;;;5073158;28;20024;-75
2022/11/15 07:40:27;;;;;;;27.90;18.05;;;9.40;99.90;;;;;;5073607;28;20472;-75
2022/11/15 07:42:58;;;;;;;30.38;19.10;;;9.50;99.90;;;;;;5073866;28;20044;-74
2022/11/15 07:45:26;;;;;;;23.13;17.35;;;9.50;99.90;;;;;;5072678;28;20029;-74
2022/11/15 07:47:52;;;;;;;30.02;16.65;;;9.60;99.90;;;;;;5074999;28;20024;-74
2022/11/15 07:50:18;;;;;;;27.38;16.92;;;9.60;99.90;;;;;;5074704;28;20016;-74
2022/11/15 07:52:44;;;;;;;26.10;17.13;;;9.60;99.90;;;;;;5071950;28;20396;-74
2022/11/15 07:55:10;;;;;;;35.30;16.85;;;9.60;99.90;;;;;;5073727;28;20460;-74
2022/11/15 07:57:37;;;;;;;23.05;15.93;;;9.70;99.90;;;;;;5070606;28;20031;-73
2022/11/15 08:00:04;;;;;;;23.50;15.65;;;9.70;99.90;;;;;;5072872;28;20032;-75
2022/11/15 08:02:30;;;;;;;24.88;15.55;;;9.70;99.90;;;;;;5072655;28;20536;-75
2022/11/15 08:04:55;;;;;;;26.27;14.77;;;9.80;99.90;;;;;;5072694;28;20116;-74
2022/11/15 08:07:21;;;;;;;26.50;14.15;;;9.80;99.90;;;;;;5073474;28;20078;-76
2022/11/15 08:09:47;;;;;;;25.33;14.50;;;9.90;99.90;;;;;;5073258;28;20373;-76
2022/11/15 08:12:12;;;;;;;27.10;14.02;;;9.90;99.90;;;;;;5073989;28;20016;-76
2022/11/15 08:14:38;;;;;;;20.23;13.15;;;10.00;99.90;;;;;;5071785;28;20028;-76
2022/11/15 08:17:03;;;;;;;20.55;13.50;;;10.00;99.90;;;;;;5073193;28;20098;-75
2022/11/15 08:19:29;;;;;;;27.70;13.73;;;10.00;99.90;;;;;;5073914;28;20019;-75
2022/11/15 08:21:55;;;;;;;21.83;12.73;;;10.00;99.90;;;;;;5074141;28;20036;-77
2022/11/15 08:24:20;;;;;;;22.95;12.15;;;10.00;99.90;;;;;;5074085;28;20025;-75
2022/11/15 08:26:46;;;;;;;21.73;11.82;;;10.00;99.90;;;;;;5072462;28;20053;-76
2022/11/15 08:29:12;;;;;;;27.73;11.48;;;10.00;99.90;;;;;;5075168;28;20357;-78
2022/11/15 08:31:37;;;;;;;17.45;11.48;;;10.00;99.90;;;;;;5074828;28;20150;-76
2022/11/15 08:34:04;;;;;;;14.90;10.13;;;10.10;99.90;;;;;;5036595;28;1054666;-75
2022/11/15 08:36:30;;;;;;;18.38;10.35;;;10.10;99.90;;;;;;5074780;28;20043;-74
2022/11/15 08:38:55;;;;;;;15.60;9.48;;;10.10;99.90;;;;;;5075531;28;20017;-77
2022/11/15 08:41:31;;;;;;;18.35;10.57;;;10.20;99.90;;;;;;5074086;28;20077;-76
2022/11/15 08:43:56;;;;;;;17.00;10.35;;;10.20;99.90;;;;;;5064451;28;20044;-76
2022/11/15 08:46:22;;;;;;;16.95;9.80;;;10.30;99.90;;;;;;5053959;28;20021;-75
2022/11/15 08:48:48;;;;;;;20.08;9.70;;;10.30;99.90;;;;;;5071417;28;20037;-77
2022/11/15 08:51:14;;;;;;;17.48;9.57;;;10.30;99.90;;;;;;5072073;28;20156;-76
2022/11/15 08:53:39;;;;;;;16.08;9.52;;;10.30;99.90;;;;;;5072421;28;20074;-77
2022/11/15 08:56:09;;;;;;;14.85;9.57;;;10.30;99.90;;;;;;5072793;28;20032;-73
2022/11/15 08:58:36;;;;;;;16.90;9.80;;;10.40;99.90;;;;;;5084673;28;20032;-77
2022/11/15 09:01:02;;;;;;;14.48;9.75;;;10.40;99.90;;;;;;5088158;28;20043;-77
2022/11/15 09:03:28;;;;;;;17.38;9.27;;;10.40;99.90;;;;;;5059683;28;20085;-76
2022/11/15 09:06:00;;;;;;;17.17;11.15;;;10.40;99.90;;;;;;5077814;28;20040;-76
2022/11/15 09:08:30;;;;;;;21.35;10.48;;;10.40;99.90;;;;;;5076069;28;20020;-76
2022/11/15 09:10:56;;;;;;;15.52;10.60;;;10.50;99.90;;;;;;5078380;28;20104;-74
2022/11/15 09:13:24;;;;;;;18.98;9.98;;;10.50;99.90;;;;;;5078941;28;20056;-76
2022/11/15 09:15:50;;;;;;;12.18;9.98;;;10.50;99.90;;;;;;5072439;28;20107;-75
2022/11/15 09:18:16;;;;;;;14.05;9.98;;;10.50;99.90;;;;;;5081285;28;20032;-76
2022/11/15 09:20:41;;;;;;;19.40;9.02;;;10.50;99.90;;;;;;5082667;28;20257;-75
2022/11/15 09:23:07;;;;;;;16.50;9.73;;;10.60;99.90;;;;;;5086397;28;20356;-74
2022/11/15 09:25:33;;;;;;;14.95;9.30;;;10.70;99.90;;;;;;5086079;28;20025;-76
2022/11/15 09:27:58;;;;;;;12.65;8.70;;;10.70;99.90;;;;;;5102792;28;20034;-79
2022/11/15 09:30:25;;;;;;;17.55;7.88;;;10.80;99.90;;;;;;5083084;28;20046;-76
2022/11/15 09:32:50;;;;;;;10.27;8.00;;;10.80;99.90;;;;;;5086260;28;20093;-76
2022/11/15 09:35:16;;;;;;;11.07;7.50;;;10.90;99.90;;;;;;5085850;28;20059;-77
2022/11/15 09:37:42;;;;;;;11.45;7.68;;;10.90;99.90;;;;;;5065399;28;20581;-78
2022/11/15 09:40:16;;;;;;;11.57;6.82;;;10.90;99.90;;;;;;5058413;28;20427;-76
2022/11/15 09:43:09;;;;;;;17.95;8.15;;;10.90;99.90;;;;;;5064741;28;20017;-75
2022/11/15 09:45:47;;;;;;;10.93;6.43;;;11.00;99.90;;;;;;5070058;28;20025;-78
2022/11/15 09:48:36;;;;;;;13.52;7.05;;;11.00;99.90;;;;;;5064306;28;20439;-78
2022/11/15 09:51:08;;;;;;;14.13;6.63;;;11.10;99.90;;;;;;5075814;28;20028;-78
2022/11/15 09:53:55;;;;;;;6.72;6.03;;;11.20;99.90;;;;;;5074198;28;20519;-77
2022/11/15 09:56:23;;;;;;;10.20;5.78;;;11.10;99.90;;;;;;5076036;28;20070;-76
2022/11/15 09:59:14;;;;;;;14.55;7.00;;;11.20;99.90;;;;;;5075031;28;20555;-78
2022/11/15 10:01:56;;;;;;;6.35;5.28;;;11.20;99.90;;;;;;5073206;28;20090;-78
2022/11/15 10:04:25;;;;;;;7.93;5.10;;;11.30;99.90;;;;;;5074310;28;20109;-76
2022/11/15 10:07:02;;;;;;;11.00;5.78;;;11.30;99.90;;;;;;5072674;28;20013;-77
2022/11/15 10:09:37;;;;;;;12.30;4.80;;;11.30;99.90;;;;;;5073984;28;20366;-76
2022/11/15 10:12:03;;;;;;;6.25;4.15;;;11.30;99.90;;;;;;5073501;28;20112;-77
2022/11/15 10:14:31;;;;;;;10.65;4.45;;;11.40;99.90;;;;;;5074810;28;20546;-77
2022/11/15 10:17:11;;;;;;;6.82;4.00;;;11.50;99.90;;;;;;5074344;28;20021;-77
2022/11/15 10:19:50;;;;;;;5.00;4.40;;;11.40;99.90;;;;;;5074510;28;20101;-77
2022/11/15 10:22:22;;;;;;;7.68;3.95;;;11.40;99.90;;;;;;5076018;28;20116;-78
2022/11/15 10:24:48;;;;;;;10.07;3.80;;;11.30;99.90;;;;;;5075381;28;20103;-76
2022/11/15 10:27:16;;;;;;;6.63;3.80;;;11.40;99.90;;;;;;5072350;28;20052;-74
2022/11/15 10:29:47;;;;;;;6.95;3.78;;;11.40;99.90;;;;;;5073819;28;20038;-77
2022/11/15 10:32:13;;;;;;;;;;;11.50;99.90;;;;;;5079065;28;20039;-75
2022/11/15 10:34:38;;;;;;;5.65;3.13;;;11.50;99.90;;;;;;5074021;28;19920;-77
2022/11/15 10:37:04;;;;;;;12.35;4.15;;;11.70;99.90;;;;;;5076999;28;20381;-76
2022/11/15 10:39:30;;;;;;;7.85;4.03;;;11.80;99.90;;;;;;5074240;28;20492;-78
2022/11/15 10:41:56;;;;;;;8.35;4.07;;;11.80;99.90;;;;;;5078015;28;20492;-76
2022/11/15 10:44:29;;;;;;;5.40;3.90;;;11.90;99.90;;;;;;5077506;28;20028;-78
2022/11/15 10:46:54;;;;;;;4.22;3.42;;;11.90;99.90;;;;;;5077184;28;20044;-77
2022/11/15 10:49:21;;;;;;;9.10;3.10;;;11.90;99.90;;;;;;5077861;28;20032;-79
2022/11/15 10:51:51;;;;;;;5.20;3.38;;;12.00;99.90;;;;;;5073817;28;20032;-79
2022/11/15 10:54:37;;;;;;;11.07;3.63;;;12.00;99.90;;;;;;5063298;28;20055;-77
2022/11/15 10:57:21;;;;;;;4.60;2.83;;;12.10;99.90;;;;;;5073682;28;21659;-77
2022/11/15 10:59:54;;;;;;;6.32;2.78;;;12.10;99.90;;;;;;5068472;28;20116;-77
2022/11/15 11:02:38;;;;;;;8.85;3.35;;;12.10;99.90;;;;;;5068169;28;20063;-77
2022/11/15 11:05:28;;;;;;;9.30;3.10;;;12.00;99.90;;;;;;5068244;28;20043;-77
2022/11/15 11:08:05;;;;;;;7.35;2.88;;;12.00;99.90;;;;;;5069385;28;20027;-76
2022/11/15 11:10:33;;;;;;;9.98;2.70;;;12.00;99.90;;;;;;5072326;28;20123;-76
2022/11/15 11:13:38;;;;;;;5.53;2.65;;;12.00;99.90;;;;;;5076310;28;20403;-78
2022/11/15 11:16:29;;;;;;;8.77;2.38;;;12.00;99.90;;;;;;5052534;28;20037;-78
2022/11/15 11:19:13;;;;;;;5.80;2.30;;;12.10;99.90;;;;;;5077641;28;20033;-78
2022/11/15 11:21:57;;;;;;;4.05;2.03;;;12.20;99.90;;;;;;5073869;28;20032;-77
2022/11/15 11:24:40;;;;;;;9.35;2.20;;;12.20;99.90;;;;;;5072408;28;20736;-79
2022/11/15 11:27:24;;;;;;;4.03;1.90;;;12.20;99.90;;;;;;5076069;28;20415;-79
2022/11/15 11:30:02;;;;;;;4.75;2.33;;;12.20;99.90;;;;;;5074371;28;20051;-78
2022/11/15 11:32:42;;;;;;;8.68;2.10;;;12.30;99.90;;;;;;5075192;28;20012;-77
2022/11/15 11:35:19;;;;;;;5.53;2.00;;;12.40;99.90;;;;;;5075041;28;20040;-78
2022/11/15 11:37:50;;;;;;;6.93;2.58;;;12.50;99.90;;;;;;5074285;28;20083;-77
2022/11/15 11:40:40;;;;;;;5.80;2.22;;;12.50;99.90;;;;;;5077754;28;20102;-75
2022/11/15 11:43:12;;;;;;;4.07;1.77;;;12.50;99.90;;;;;;5071779;28;20508;-77
2022/11/15 11:46:04;;;;;;;7.35;2.35;;;12.60;99.90;;;;;;5077695;28;20017;-77
2022/11/15 11:48:46;;;;;;;7.63;2.47;;;12.50;99.90;;;;;;5074472;28;20059;-78
2022/11/15 11:51:41;;;;;;;6.15;2.17;;;12.50;99.90;;;;;;5074804;28;20020;-78
2022/11/15 11:54:35;;;;;;;8.45;2.25;;;12.50;99.90;;;;;;5070843;28;20060;-78
2022/11/15 11:57:04;;;;;;;4.20;1.80;;;12.50;99.90;;;;;;5073832;28;20052;-75
2022/11/15 12:00:05;;;;;;;3.25;1.83;;;12.50;99.90;;;;;;5074261;28;20043;-79
2022/11/15 12:02:37;;;;;;;5.90;1.83;;;13.60;99.90;;;;;;5057954;28;20484;-79
2022/11/15 12:05:27;;;;;;;6.72;1.90;;;12.50;99.90;;;;;;5076343;28;20056;-78
2022/11/15 12:07:58;;;;;;;3.75;1.95;;;12.70;99.90;;;;;;5076089;28;20108;-80
2022/11/15 12:10:28;;;;;;;3.90;1.50;;;12.70;99.90;;;;;;5076938;28;20063;-78
2022/11/15 12:13:19;;;;;;;5.65;1.80;;;12.70;99.90;;;;;;5076648;28;20037;-78
2022/11/15 12:16:04;;;;;;;2.53;1.23;;;12.80;99.90;;;;;;5068124;28;20028;-79
2022/11/15 12:18:30;;;;;;;8.57;2.15;;;12.90;99.90;;;;;;5074167;28;20024;-78
2022/11/15 12:21:26;;;;;;;8.68;1.40;;;13.00;99.90;;;;;;5083502;28;20052;-79
2022/11/15 12:23:58;;;;;;;5.13;1.10;;;13.00;99.90;;;;;;5082085;28;20025;-79
2022/11/15 12:26:31;;;;;;;4.65;1.60;;;13.10;99.90;;;;;;5091063;28;20066;-77
2022/11/15 12:29:10;;;;;;;6.45;1.55;;;13.20;99.90;;;;;;5098583;28;20028;-79
2022/11/15 12:31:40;;;;;;;6.68;1.48;;;13.20;99.90;;;;;;5106706;28;20020;-80
2022/11/15 12:34:21;;;;;;;7.18;1.48;;;13.20;99.90;;;;;;5089191;28;20039;-77
2022/11/15 12:36:49;;;;;;;3.33;1.00;;;13.20;99.90;;;;;;5102494;28;20032;-78
2022/11/15 12:39:16;;;;;;;4.20;1.20;;;13.20;99.90;;;;;;5099851;28;20016;-77
2022/11/15 12:41:44;;;;;;;9.95;1.77;;;13.20;99.90;;;;;;5092100;28;20036;-78
2022/11/15 12:44:29;;;;;;;5.78;1.45;;;13.20;99.90;;;;;;5088087;28;20020;-78
2022/11/15 12:46:55;;;;;;;6.30;1.50;;;13.30;99.90;;;;;;5072428;28;20095;-78
2022/11/15 12:49:23;;;;;;;5.57;1.42;;;13.20;99.90;;;;;;5075615;28;20025;-78
2022/11/15 12:51:50;;;;;;;6.50;1.35;;;13.20;99.90;;;;;;5066508;28;20024;-80
2022/11/15 12:54:22;;;;;;;4.80;1.58;;;13.10;99.90;;;;;;5070301;28;20039;-77
2022/11/15 12:57:02;;;;;;;5.10;1.50;;;13.10;99.90;;;;;;5075291;28;20033;-77
2022/11/15 13:00:03;;;;;;;4.82;1.13;;;13.10;99.90;;;;;;5091619;28;20353;-80
2022/11/15 13:02:48;;;;;;;7.55;1.48;;;13.00;99.90;;;;;;5095657;28;20032;-79
2022/11/15 13:05:20;;;;;;;3.25;1.23;;;12.90;99.90;;;;;;5090816;28;20099;-79
2022/11/15 13:07:45;;;;;;;2.50;1.05;;;12.90;99.90;;;;;;5091558;28;20028;-77
2022/11/15 13:10:13;;;;;;;4.32;1.20;;;12.90;99.90;;;;;;5083387;28;20021;-77
2022/11/15 13:12:45;;;;;;;9.40;1.98;;;12.80;99.90;;;;;;5091025;28;20074;-79